createdAt,value
2022-09-15T00:00:30.107Z,39.45
2022-09-15T00:02:56.739Z,39.33
2022-09-15T00:05:23.398Z,41.72
2022-09-15T00:07:49.957Z,37.17
2022-09-15T00:10:17.406Z,39.13
2022-09-15T00:12:44.019Z,38.80
2022-09-15T00:15:14.848Z,40.90
2022-09-15T00:17:43.039Z,38.35
2022-09-15T00:20:10.915Z,40.42
2022-09-15T00:22:37.998Z,40.97
2022-09-15T00:25:05.529Z,48.95
2022-09-15T00:27:33.267Z,42.40
2022-09-15T00:29:59.955Z,49.85
2022-09-15T00:32:26.440Z,57.55
2022-09-15T00:34:53.463Z,43.90
2022-09-15T00:37:20.517Z,45.30
2022-09-15T00:39:47.277Z,42.97
2022-09-15T00:42:19.291Z,38.40
2022-09-15T00:44:54.984Z,40.40
2022-09-15T00:47:27.263Z,42.28
2022-09-15T00:50:01.232Z,46.05
2022-09-15T00:52:39.110Z,39.17
2022-09-15T00:55:28.315Z,40.95
2022-09-15T00:58:09.752Z,45.00
2022-09-15T01:00:37.877Z,40.67
2022-09-15T01:03:04.520Z,37.92
2022-09-15T01:05:36.824Z,36.83
2022-09-15T01:08:07.231Z,36.17
2022-09-15T01:10:37.237Z,35.10
2022-09-15T01:13:09.480Z,37.28
2022-09-15T01:15:58.232Z,34.00
2022-09-15T01:18:33.176Z,35.10
2022-09-15T01:21:25.963Z,35.70
2022-09-15T01:23:52.575Z,36.40
2022-09-15T01:26:52.607Z,30.13
2022-09-15T01:29:48.935Z,30.88
2022-09-15T01:33:02.843Z,30.95
2022-09-15T01:35:54.303Z,29.52
2022-09-15T01:38:28.482Z,32.93
2022-09-15T01:41:09.072Z,32.10
2022-09-15T01:43:55.176Z,31.83
2022-09-15T01:46:26.225Z,36.92
2022-09-15T01:48:55.150Z,34.63
2022-09-15T01:51:24.112Z,38.25
2022-09-15T01:53:53.605Z,34.40
2022-09-15T01:56:20.327Z,44.47
2022-09-15T01:58:50.719Z,37.47
2022-09-15T02:01:26.514Z,36.03
2022-09-15T02:03:58.423Z,36.95
2022-09-15T02:06:58.411Z,39.15
2022-09-15T02:09:33.397Z,35.83
2022-09-15T02:12:20.351Z,38.67
2022-09-15T02:14:52.668Z,33.60
2022-09-15T02:17:22.014Z,31.63
2022-09-15T02:19:53.768Z,32.17
2022-09-15T02:22:27.065Z,31.85
2022-09-15T02:24:59.836Z,33.63
2022-09-15T02:27:30.010Z,29.58
2022-09-15T02:30:03.054Z,33.05
2022-09-15T02:32:33.300Z,31.92
2022-09-15T02:35:06.846Z,31.30
2022-09-15T02:37:36.558Z,30.10
2022-09-15T02:40:04.638Z,29.38
2022-09-15T02:42:32.654Z,29.17
2022-09-15T02:45:00.702Z,29.23
2022-09-15T02:47:28.504Z,26.95
2022-09-15T02:49:55.524Z,27.73
2022-09-15T02:52:22.205Z,26.38
2022-09-15T02:54:48.984Z,27.10
2022-09-15T02:57:16.420Z,24.88
2022-09-15T03:00:01.838Z,25.70
2022-09-15T03:02:28.895Z,25.90
2022-09-15T03:04:55.531Z,27.25
2022-09-15T03:07:22.190Z,28.02
2022-09-15T03:09:48.670Z,27.85
2022-09-15T03:12:15.871Z,22.58
2022-09-15T03:14:42.961Z,24.58
2022-09-15T03:17:09.772Z,27.38
2022-09-15T03:19:36.314Z,25.30
2022-09-15T03:22:03.187Z,26.52
2022-09-15T03:24:29.721Z,25.95
2022-09-15T03:26:56.807Z,26.38
2022-09-15T03:29:23.391Z,26.58
2022-09-15T03:31:50.015Z,26.38
2022-09-15T03:34:16.661Z,26.65
2022-09-15T03:36:43.368Z,28.58
2022-09-15T03:39:12.025Z,28.10
2022-09-15T03:41:38.611Z,27.70
2022-09-15T03:44:05.240Z,27.25
2022-09-15T03:46:31.866Z,28.02
2022-09-15T03:48:58.455Z,26.80
2022-09-15T03:51:25.473Z,26.23
2022-09-15T03:53:52.116Z,28.98
2022-09-15T03:56:28.116Z,28.80
2022-09-15T03:58:54.723Z,28.45
2022-09-15T04:01:21.888Z,27.30
2022-09-15T04:03:51.410Z,29.70
2022-09-15T04:06:20.115Z,28.83
2022-09-15T04:08:47.600Z,24.80
2022-09-15T04:11:14.572Z,26.70
2022-09-15T04:13:42.004Z,25.30
2022-09-15T04:16:17.365Z,25.40
2022-09-15T04:18:44.287Z,24.42
2022-09-15T04:21:13.565Z,24.55
2022-09-15T04:23:41.119Z,24.05
2022-09-15T04:26:11.925Z,24.58
2022-09-15T04:28:39.671Z,22.63
2022-09-15T04:31:09.057Z,23.25
2022-09-15T04:33:38.336Z,23.17
2022-09-15T04:36:07.998Z,20.90
2022-09-15T04:38:35.804Z,21.75
2022-09-15T04:41:03.176Z,19.55
2022-09-15T04:43:30.151Z,16.50
2022-09-15T04:45:56.619Z,18.17
2022-09-15T04:48:23.482Z,19.20
2022-09-15T04:50:50.454Z,19.25
2022-09-15T04:53:17.157Z,19.40
2022-09-15T04:55:44.612Z,20.73
2022-09-15T04:58:11.941Z,16.45
2022-09-15T05:00:42.918Z,16.50
2022-09-15T05:03:14.162Z,15.00
2022-09-15T05:05:41.621Z,14.43
2022-09-15T05:08:08.308Z,13.50
2022-09-15T05:10:35.396Z,14.18
2022-09-15T05:13:01.910Z,12.07
2022-09-15T05:15:28.456Z,10.95
2022-09-15T05:17:55.028Z,11.95
2022-09-15T05:20:22.423Z,12.10
2022-09-15T05:22:48.915Z,11.05
2022-09-15T05:25:15.589Z,12.88
2022-09-15T05:27:42.324Z,10.93
2022-09-15T05:30:35.848Z,9.60
2022-09-15T05:32:56.869Z,9.00
2022-09-15T05:35:26.344Z,9.45
2022-09-15T05:37:52.860Z,9.32
2022-09-15T05:40:21.806Z,9.73
2022-09-15T05:42:48.421Z,9.23
2022-09-15T05:45:14.975Z,8.85
2022-09-15T05:47:41.553Z,7.18
2022-09-15T05:50:08.435Z,7.22
2022-09-15T05:52:35.686Z,6.53
2022-09-15T05:55:02.257Z,5.97
2022-09-15T05:57:29.692Z,7.72
2022-09-15T05:59:56.200Z,6.10
2022-09-15T06:02:22.959Z,6.70
2022-09-15T06:04:49.587Z,6.55
2022-09-15T06:07:16.555Z,6.25
2022-09-15T06:09:43.571Z,7.18
2022-09-15T06:12:10.200Z,6.55
2022-09-15T06:14:36.715Z,6.25
2022-09-15T06:17:03.328Z,6.80
2022-09-15T06:19:29.817Z,6.13
2022-09-15T06:21:56.408Z,5.82
2022-09-15T06:24:23.185Z,5.90
2022-09-15T06:26:49.764Z,6.63
2022-09-15T06:29:16.270Z,6.10
2022-09-15T06:31:43.087Z,5.35
2022-09-15T06:34:11.233Z,5.75
2022-09-15T06:36:38.946Z,6.15
2022-09-15T06:39:05.614Z,6.18
2022-09-15T06:41:58.409Z,5.38
2022-09-15T06:44:22.047Z,5.95
2022-09-15T06:46:50.275Z,4.40
2022-09-15T06:49:17.248Z,5.57
2022-09-15T06:51:43.797Z,4.90
2022-09-15T06:54:10.495Z,4.03
2022-09-15T06:56:38.357Z,5.40
2022-09-15T06:59:05.186Z,5.65
2022-09-15T07:01:35.417Z,4.82
2022-09-15T07:04:05.558Z,4.30
2022-09-15T07:06:33.581Z,4.93
2022-09-15T07:09:01.665Z,4.50
2022-09-15T07:11:29.053Z,5.15
2022-09-15T07:13:55.568Z,3.72
2022-09-15T07:16:22.751Z,4.53
2022-09-15T07:18:55.474Z,5.03
2022-09-15T07:21:22.157Z,5.78
2022-09-15T07:23:50.023Z,4.80
2022-09-15T07:26:20.708Z,2.25
2022-09-15T07:28:50.309Z,1.33
2022-09-15T07:31:20.882Z,1.20
2022-09-15T07:33:47.674Z,1.15
2022-09-15T07:36:15.150Z,1.20
2022-09-15T07:38:45.172Z,1.77
2022-09-15T07:41:20.793Z,1.30
2022-09-15T07:43:52.518Z,1.33
2022-09-15T07:46:21.759Z,1.25
2022-09-15T07:48:50.564Z,1.40
2022-09-15T07:51:18.704Z,1.15
2022-09-15T07:53:47.131Z,1.63
2022-09-15T07:56:14.578Z,1.50
2022-09-15T07:58:41.173Z,1.90
2022-09-15T08:01:11.531Z,1.95
2022-09-15T08:03:48.789Z,1.80
2022-09-15T08:06:18.156Z,2.50
2022-09-15T08:08:44.843Z,2.00
2022-09-15T08:11:18.488Z,2.33
2022-09-15T08:13:49.965Z,2.95
2022-09-15T08:16:22.279Z,2.80
2022-09-15T08:18:49.593Z,3.50
2022-09-15T08:21:22.295Z,3.55
2022-09-15T08:23:57.368Z,2.90
2022-09-15T08:28:50.624Z,3.22
2022-09-15T08:31:17.762Z,2.85
2022-09-15T08:33:51.907Z,2.60
2022-09-15T08:36:19.058Z,1.98
2022-09-15T08:38:45.920Z,2.30
2022-09-15T08:41:18.496Z,2.00
2022-09-15T08:44:17.681Z,3.03
2022-09-15T08:46:53.207Z,2.10
2022-09-15T08:49:50.090Z,2.25
2022-09-15T08:52:24.383Z,2.85
2022-09-15T08:54:57.135Z,2.10
2022-09-15T08:57:25.962Z,3.20
2022-09-15T08:59:55.033Z,2.33
2022-09-15T09:02:27.658Z,2.65
2022-09-15T09:04:59.030Z,2.00
2022-09-15T09:07:34.595Z,2.25
2022-09-15T09:10:19.006Z,1.83
2022-09-15T09:12:53.925Z,2.40
2022-09-15T09:15:56.789Z,2.67
2022-09-15T09:18:26.221Z,2.42
2022-09-15T09:21:11.486Z,2.97
2022-09-15T09:23:54.458Z,2.70
2022-09-15T09:26:21.593Z,1.92
2022-09-15T09:28:55.452Z,2.15
2022-09-15T09:31:24.683Z,2.08
2022-09-15T09:34:15.313Z,2.10
2022-09-15T09:36:42.801Z,2.83
2022-09-15T09:39:15.098Z,3.80
2022-09-15T09:41:42.530Z,2.10
2022-09-15T09:44:14.429Z,3.22
2022-09-15T09:46:42.263Z,2.63
2022-09-15T09:49:22.980Z,2.63
2022-09-15T09:51:55.217Z,2.88
2022-09-15T09:54:24.912Z,3.20
2022-09-15T09:56:53.597Z,2.97
2022-09-15T09:59:38.656Z,3.20
2022-09-15T10:02:10.461Z,3.10
2022-09-15T10:07:05.572Z,2.70
2022-09-15T10:09:33.486Z,3.45
2022-09-15T10:12:05.077Z,4.10
2022-09-15T10:14:35.506Z,3.35
2022-09-15T10:17:07.897Z,3.92
2022-09-15T10:19:58.199Z,3.70
2022-09-15T10:22:37.425Z,4.43
2022-09-15T10:25:35.675Z,4.38
2022-09-15T10:28:15.216Z,4.65
2022-09-15T10:31:07.981Z,4.75
2022-09-15T10:33:37.327Z,5.50
2022-09-15T10:36:04.093Z,6.40
2022-09-15T10:38:58.075Z,6.70
2022-09-15T10:41:28.614Z,6.97
2022-09-15T10:44:13.766Z,6.68
2022-09-15T10:47:17.694Z,6.18
2022-09-15T10:49:53.189Z,5.82
2022-09-15T10:52:43.944Z,7.57
2022-09-15T10:55:48.971Z,6.85
2022-09-15T10:58:41.078Z,7.05
2022-09-15T11:01:43.224Z,6.97
2022-09-15T11:04:30.099Z,7.25
2022-09-15T11:07:14.131Z,7.13
2022-09-15T11:10:13.080Z,7.13
2022-09-15T11:12:45.908Z,6.40
2022-09-15T11:15:35.022Z,6.32
2022-09-15T11:18:19.664Z,6.97
2022-09-15T11:21:11.122Z,7.55
2022-09-15T11:23:44.228Z,5.45
2022-09-15T11:26:22.217Z,6.03
2022-09-15T11:29:01.350Z,6.75
2022-09-15T11:31:34.222Z,5.05
2022-09-15T11:34:19.444Z,5.72
2022-09-15T11:37:12.060Z,6.68
2022-09-15T11:39:51.917Z,6.03
2022-09-15T11:42:33.266Z,5.88
2022-09-15T11:45:01.459Z,7.05
2022-09-15T11:47:27.913Z,5.63
2022-09-15T11:50:18.250Z,7.15
2022-09-15T11:53:29.897Z,7.47
2022-09-15T11:55:59.472Z,6.73
2022-09-15T11:58:41.060Z,7.20
2022-09-15T12:01:10.571Z,5.47
2022-09-15T12:03:52.822Z,7.30
2022-09-15T12:06:45.563Z,5.13
2022-09-15T12:09:15.881Z,5.53
2022-09-15T12:11:52.974Z,5.60
2022-09-15T12:14:43.724Z,5.20
2022-09-15T12:17:23.077Z,5.95
2022-09-15T12:20:02.179Z,4.82
2022-09-15T12:22:35.716Z,6.88
2022-09-15T12:25:24.411Z,5.63
2022-09-15T12:28:21.946Z,7.43
2022-09-15T12:30:50.681Z,7.90
2022-09-15T12:33:42.121Z,8.00
2022-09-15T12:36:39.566Z,7.95
2022-09-15T12:39:20.603Z,7.65
2022-09-15T12:42:05.016Z,7.23
2022-09-15T12:44:37.058Z,9.55
2022-09-15T12:47:07.581Z,8.50
2022-09-15T12:49:45.884Z,10.00
2022-09-15T12:52:13.445Z,7.97
2022-09-15T12:54:42.501Z,6.68
2022-09-15T12:57:35.683Z,7.15
2022-09-15T13:02:46.021Z,7.72
2022-09-15T13:05:14.210Z,6.78
2022-09-15T13:07:56.987Z,7.03
2022-09-15T13:10:33.362Z,8.98
2022-09-15T13:13:15.996Z,8.48
2022-09-15T13:15:46.469Z,7.05
2022-09-15T13:18:15.906Z,6.55
2022-09-15T13:20:56.167Z,6.60
2022-09-15T13:23:25.537Z,5.65
2022-09-15T13:25:56.417Z,5.22
2022-09-15T13:28:24.633Z,4.73
2022-09-15T13:31:15.678Z,6.45
2022-09-15T13:39:59.856Z,6.50
2022-09-15T13:42:46.005Z,5.68
2022-09-15T13:45:25.339Z,6.28
2022-09-15T13:48:03.969Z,5.93
2022-09-15T13:50:42.930Z,6.05
2022-09-15T13:53:37.829Z,5.18
2022-09-15T13:56:08.955Z,4.03
2022-09-15T14:01:23.662Z,4.70
2022-09-15T14:04:21.500Z,4.55
2022-09-15T14:06:51.916Z,5.18
2022-09-15T14:09:23.455Z,4.68
2022-09-15T14:11:53.376Z,5.32
2022-09-15T14:14:41.120Z,5.07
2022-09-15T14:17:24.406Z,4.78
2022-09-15T14:19:59.862Z,4.03
2022-09-15T14:22:34.090Z,3.45
2022-09-15T14:25:06.278Z,3.67
2022-09-15T14:27:34.651Z,3.40
2022-09-15T14:30:08.220Z,4.03
2022-09-15T14:32:39.233Z,3.90
2022-09-15T14:35:09.229Z,3.43
2022-09-15T14:37:35.843Z,3.72
2022-09-15T14:40:19.367Z,3.85
2022-09-15T14:42:46.028Z,3.40
2022-09-15T14:48:07.258Z,3.63
2022-09-15T14:50:34.120Z,3.63
2022-09-15T14:53:11.630Z,3.72
2022-09-15T14:56:08.051Z,4.40
2022-09-15T14:58:58.186Z,4.90
2022-09-15T15:01:28.022Z,5.68
2022-09-15T15:04:12.843Z,4.20
2022-09-15T15:06:51.663Z,4.57
2022-09-15T15:09:21.522Z,4.90
2022-09-15T15:11:56.822Z,5.60
2022-09-15T15:14:23.890Z,4.80
2022-09-15T15:17:02.359Z,4.93
2022-09-15T15:19:39.741Z,4.88
2022-09-15T15:22:26.882Z,4.95
2022-09-15T15:27:26.500Z,4.85
2022-09-15T15:29:53.144Z,5.13
2022-09-15T15:32:25.056Z,5.18
2022-09-15T15:34:59.759Z,6.47
2022-09-15T15:37:27.624Z,6.05
2022-09-15T15:40:00.044Z,5.82
2022-09-15T15:42:29.023Z,6.35
2022-09-15T15:45:04.437Z,6.45
2022-09-15T15:47:35.173Z,6.35
2022-09-15T15:50:19.048Z,6.53
2022-09-15T15:52:45.707Z,7.53
2022-09-15T15:55:17.399Z,7.38
2022-09-15T15:57:44.752Z,7.88
2022-09-15T16:00:40.761Z,7.93
2022-09-15T16:03:08.764Z,8.13
2022-09-15T16:05:36.026Z,7.60
2022-09-15T16:08:25.919Z,7.78
2022-09-15T16:10:54.641Z,7.43
2022-09-15T16:13:22.314Z,7.53
2022-09-15T16:15:49.498Z,7.45
2022-09-15T16:18:16.782Z,8.43
2022-09-15T16:20:43.748Z,9.23
2022-09-15T16:23:18.471Z,8.52
2022-09-15T16:25:54.579Z,10.05
2022-09-15T16:28:21.756Z,8.32
2022-09-15T16:30:48.311Z,8.38
2022-09-15T16:33:16.275Z,8.05
2022-09-15T16:35:51.055Z,9.18
2022-09-15T16:38:20.041Z,10.23
2022-09-15T16:40:47.834Z,8.80
2022-09-15T16:43:16.871Z,10.90
2022-09-15T16:45:44.376Z,13.48
2022-09-15T16:51:02.175Z,21.98
2022-09-15T16:53:30.973Z,26.02
2022-09-15T16:55:57.589Z,25.33
2022-09-15T16:58:24.172Z,27.15
2022-09-15T17:00:52.583Z,26.63
2022-09-15T17:03:22.990Z,28.48
2022-09-15T17:06:00.815Z,27.00
2022-09-15T17:08:32.881Z,27.88
2022-09-15T17:11:02.020Z,27.13
2022-09-15T17:13:32.695Z,30.30
2022-09-15T17:16:00.540Z,31.98
2022-09-15T17:18:28.232Z,25.40
2022-09-15T17:20:56.012Z,23.60
2022-09-15T17:23:27.695Z,19.58
2022-09-15T17:25:58.427Z,20.80
2022-09-15T17:28:27.782Z,22.50
2022-09-15T17:31:05.478Z,34.38
2022-09-15T17:33:32.495Z,40.83
2022-09-15T17:36:00.304Z,61.80
2022-09-15T17:38:27.167Z,43.08
2022-09-15T17:40:59.998Z,22.10
2022-09-15T17:43:28.973Z,19.35
2022-09-15T17:45:56.333Z,17.17
2022-09-15T17:48:23.821Z,12.95
2022-09-15T17:50:50.941Z,15.07
2022-09-15T17:53:18.575Z,13.32
2022-09-15T17:55:45.094Z,15.15
2022-09-15T17:58:12.910Z,17.25
2022-09-15T18:00:42.402Z,15.52
2022-09-15T18:03:18.086Z,16.40
2022-09-15T18:05:44.797Z,17.23
2022-09-15T18:08:12.491Z,18.13
2022-09-15T18:10:39.468Z,16.13
2022-09-15T18:13:06.999Z,18.60
2022-09-15T18:15:35.369Z,15.45
2022-09-15T18:18:08.410Z,17.02
2022-09-15T18:20:36.741Z,16.33
2022-09-15T18:25:25.498Z,17.00
2022-09-15T18:27:52.119Z,17.38
2022-09-15T18:30:20.346Z,18.35
2022-09-15T18:32:47.784Z,20.00
2022-09-15T18:35:24.966Z,18.95
2022-09-15T18:37:58.078Z,19.65
2022-09-15T18:40:25.425Z,21.92
2022-09-15T18:42:52.377Z,24.55
2022-09-15T18:45:20.471Z,21.02
2022-09-15T18:47:48.757Z,23.67
2022-09-15T18:50:17.586Z,24.17
2022-09-15T18:52:44.717Z,24.60
2022-09-15T18:55:16.620Z,23.10
2022-09-15T18:57:43.569Z,24.20
2022-09-15T19:00:19.407Z,23.80
2022-09-15T19:02:47.166Z,24.35
2022-09-15T19:05:17.773Z,22.48
2022-09-15T19:07:45.320Z,23.55
2022-09-15T19:10:14.304Z,22.48
2022-09-15T19:12:41.124Z,23.08
2022-09-15T19:15:11.327Z,24.25
2022-09-15T19:17:39.643Z,22.02
2022-09-15T19:20:09.894Z,23.23
2022-09-15T19:22:37.053Z,21.38
2022-09-15T19:25:04.721Z,21.67
2022-09-15T19:27:31.306Z,19.08
2022-09-15T19:29:59.921Z,18.60
2022-09-15T19:32:26.772Z,19.27
2022-09-15T19:34:53.592Z,18.25
2022-09-15T19:37:21.631Z,21.88
2022-09-15T19:39:49.404Z,24.23
2022-09-15T19:46:46.219Z,24.20
2022-09-15T19:49:13.041Z,21.95
2022-09-15T19:51:39.786Z,23.83
2022-09-15T19:54:07.161Z,26.10
2022-09-15T19:56:35.168Z,25.90
2022-09-15T19:59:04.147Z,27.88
2022-09-15T20:01:32.579Z,25.70
2022-09-15T20:04:01.883Z,26.65
2022-09-15T20:06:32.511Z,24.83
2022-09-15T20:09:00.173Z,24.33
2022-09-15T20:11:27.369Z,25.30
2022-09-15T20:13:54.701Z,23.08
2022-09-15T20:16:23.956Z,21.90
2022-09-15T20:18:53.896Z,24.13
2022-09-15T20:21:48.642Z,23.85
2022-09-15T20:24:15.222Z,30.67
2022-09-15T20:26:41.964Z,32.53
2022-09-15T20:29:10.395Z,32.15
2022-09-15T20:31:37.178Z,34.92
2022-09-15T20:34:03.894Z,36.10
2022-09-15T20:36:35.995Z,35.90
2022-09-15T20:39:06.219Z,30.42
2022-09-15T20:41:32.898Z,29.60
2022-09-15T20:44:00.153Z,29.50
2022-09-15T20:46:29.256Z,32.15
2022-09-15T20:48:56.069Z,28.70
2022-09-15T20:51:29.417Z,28.58
2022-09-15T20:53:57.780Z,27.23
2022-09-15T20:56:27.116Z,26.45
2022-09-15T20:58:55.732Z,28.52
2022-09-15T21:01:34.098Z,29.55
2022-09-15T21:04:01.079Z,29.05
2022-09-15T21:08:13.424Z,29.35
2022-09-15T21:10:44.536Z,30.98
2022-09-15T21:13:11.616Z,29.13
2022-09-15T21:15:38.191Z,30.70
2022-09-15T21:18:04.958Z,30.70
2022-09-15T21:20:31.619Z,31.15
2022-09-15T21:22:58.285Z,32.50
2022-09-15T21:25:24.937Z,33.10
2022-09-15T21:27:52.280Z,31.70
2022-09-15T21:30:19.193Z,29.70
2022-09-15T21:32:46.098Z,29.83
2022-09-15T21:35:12.724Z,31.05
2022-09-15T21:37:39.400Z,31.23
2022-09-15T21:40:06.622Z,30.33
2022-09-15T21:42:33.272Z,32.00
2022-09-15T21:45:00.337Z,29.10
2022-09-15T21:47:27.419Z,30.38
2022-09-15T21:49:54.080Z,30.95
2022-09-15T21:52:21.646Z,34.58
2022-09-15T21:54:48.285Z,33.30
2022-09-15T21:57:15.327Z,33.35
2022-09-15T21:59:42.741Z,33.80
2022-09-15T22:02:10.900Z,31.88
2022-09-15T22:04:38.262Z,33.88
2022-09-15T22:07:06.060Z,35.63
2022-09-15T22:09:33.482Z,33.25
2022-09-15T22:12:00.166Z,35.53
2022-09-15T22:14:26.626Z,34.72
2022-09-15T22:16:53.447Z,33.25
2022-09-15T22:19:20.114Z,35.25
2022-09-15T22:21:46.752Z,34.47
2022-09-15T22:24:13.916Z,33.38
2022-09-15T22:26:42.457Z,34.72
2022-09-15T22:29:09.458Z,34.55
2022-09-15T22:31:36.700Z,32.08
2022-09-15T22:34:03.717Z,34.22
2022-09-15T22:36:31.396Z,30.55
2022-09-15T22:39:05.998Z,30.65
2022-09-15T22:41:37.960Z,27.20
2022-09-15T22:44:06.704Z,27.13
2022-09-15T22:46:33.384Z,29.13
2022-09-15T22:49:00.201Z,28.20
2022-09-15T22:51:26.943Z,25.50
2022-09-15T22:53:54.750Z,25.38
2022-09-15T22:56:21.487Z,26.33
2022-09-15T22:58:49.504Z,25.33
2022-09-15T23:01:21.530Z,26.40
2022-09-15T23:03:56.573Z,23.52
2022-09-15T23:06:25.374Z,23.38
2022-09-15T23:08:57.025Z,23.52
2022-09-15T23:11:24.724Z,24.45
2022-09-15T23:13:52.425Z,23.88
2022-09-15T23:16:19.825Z,23.92
2022-09-15T23:18:50.999Z,24.50
2022-09-15T23:21:18.220Z,26.15
2022-09-15T23:23:46.640Z,24.65
2022-09-15T23:26:14.138Z,23.90
2022-09-15T23:28:41.599Z,23.73
2022-09-15T23:31:10.210Z,22.90
2022-09-15T23:33:36.772Z,22.85
2022-09-15T23:36:05.759Z,21.73
2022-09-15T23:38:35.333Z,22.23
2022-09-15T23:41:02.028Z,21.40
2022-09-15T23:43:28.671Z,21.02
2022-09-15T23:45:55.339Z,22.10
2022-09-15T23:48:23.313Z,19.48
2022-09-15T23:50:49.994Z,18.10
2022-09-15T23:53:16.701Z,19.83
2022-09-15T23:55:44.843Z,18.40
2022-09-15T23:58:12.142Z,17.77
